Time;durP1;ratioP1;P1;durP2;ratioP2;P2;SDS_P1;SDS_P2;PMS_P1;PMS_P2;Temp;Humidity;BMP_temperature;BMP_pressure;BME280_temperature;BME280_humidity;BME280_pressure;Samples;Min_cycle;Max_cycle;Signal;HPM_P1;HPM_P2
2023/10/31 00:00:50;;;;;;;0.65;0.35;;;11.10;99.90;;;;;;4984758;28;20041;-58
2023/10/31 00:03:17;;;;;;;0.70;0.30;;;11.00;99.90;;;;;;4991216;28;20039;-59
2023/10/31 00:05:44;;;;;;;0.60;0.20;;;10.90;99.90;;;;;;4987870;28;20046;-57
2023/10/31 00:08:11;;;;;;;0.93;0.55;;;10.80;99.90;;;;;;4980709;28;20411;-58
2023/10/31 00:10:38;;;;;;;0.63;0.20;;;10.70;99.90;;;;;;4986205;28;20043;-58
2023/10/31 00:13:05;;;;;;;0.47;0.20;;;10.60;99.90;;;;;;4981696;28;20496;-58
2023/10/31 00:15:32;;;;;;;;;;;10.60;99.90;;;;;;4984828;28;20026;-59
2023/10/31 00:17:59;;;;;;;1.02;0.20;;;10.60;99.90;;;;;;4986420;28;19926;-60
2023/10/31 00:20:26;;;;;;;0.95;0.20;;;10.40;99.90;;;;;;4980212;28;20043;-59
2023/10/31 00:22:52;;;;;;;3.85;0.30;;;10.30;99.90;;;;;;4988490;28;20046;-59
2023/10/31 00:25:19;;;;;;;0.73;0.20;;;10.30;99.90;;;;;;4991309;28;20578;-60
2023/10/31 00:27:46;;;;;;;0.60;0.20;;;10.30;99.90;;;;;;4983693;28;20038;-59
2023/10/31 00:30:13;;;;;;;2.35;0.50;;;10.20;99.90;;;;;;4976739;28;20038;-58
2023/10/31 00:32:40;;;;;;;1.48;0.10;;;10.20;99.90;;;;;;4977445;28;20052;-60
2023/10/31 00:35:07;;;;;;;0.73;0.10;;;10.20;99.90;;;;;;4974565;28;20046;-58
2023/10/31 00:37:34;;;;;;;0.73;0.10;;;10.10;99.90;;;;;;4972560;28;20097;-59
2023/10/31 00:40:01;;;;;;;0.70;0.15;;;10.10;99.90;;;;;;4995345;28;20050;-58
2023/10/31 00:42:28;;;;;;;0.10;0.10;;;10.10;99.90;;;;;;4980676;28;20133;-58
2023/10/31 00:44:54;;;;;;;0.13;0.10;;;10.10;99.90;;;;;;4991154;28;20050;-59
2023/10/31 00:47:21;;;;;;;0.52;0.00;;;10.10;99.90;;;;;;4972234;28;20125;-59
2023/10/31 00:49:49;;;;;;;0.45;0.10;;;10.10;99.90;;;;;;4979666;28;20083;-59
2023/10/31 00:52:16;;;;;;;1.05;0.10;;;10.00;99.90;;;;;;4992372;28;20040;-59
2023/10/31 00:54:43;;;;;;;0.30;0.10;;;10.10;99.90;;;;;;4994881;28;20042;-59
2023/10/31 00:57:09;;;;;;;0.00;0.00;;;10.10;99.90;;;;;;4976261;28;20423;-59
2023/10/31 00:59:37;;;;;;;0.05;0.00;;;10.00;99.90;;;;;;4976074;28;20507;-58
2023/10/31 01:02:04;;;;;;;1.75;0.00;;;10.10;99.90;;;;;;4994304;28;20050;-58
2023/10/31 01:04:31;;;;;;;1.33;0.00;;;10.10;99.90;;;;;;4982949;28;20035;-59
2023/10/31 01:06:57;;;;;;;0.40;0.00;;;10.00;99.90;;;;;;4956987;28;20129;-58
2023/10/31 01:09:24;;;;;;;0.15;0.00;;;10.00;99.90;;;;;;4985265;28;20046;-57
2023/10/31 01:11:51;;;;;;;0.10;0.00;;;10.00;99.90;;;;;;4976938;28;20051;-59
2023/10/31 01:14:18;;;;;;;0.00;0.00;;;10.00;99.90;;;;;;4976884;28;20046;-58
2023/10/31 01:16:45;;;;;;;0.90;0.00;;;10.00;99.90;;;;;;4993048;28;20050;-58
2023/10/31 01:19:11;;;;;;;1.25;0.10;;;10.10;99.90;;;;;;4985259;28;20142;-59
2023/10/31 01:21:38;;;;;;;0.03;0.00;;;10.00;99.90;;;;;;4957294;28;20611;-58
2023/10/31 01:24:05;;;;;;;0.05;0.00;;;10.10;99.90;;;;;;4972088;28;20046;-59
2023/10/31 01:26:32;;;;;;;1.45;0.00;;;10.00;99.90;;;;;;4986044;28;20045;-59
2023/10/31 01:28:59;;;;;;;1.67;0.00;;;10.00;99.90;;;;;;4993869;28;20070;-58
2023/10/31 01:31:26;;;;;;;0.75;0.03;;;10.00;99.90;;;;;;4994064;28;20435;-58
2023/10/31 01:33:53;;;;;;;3.40;0.20;;;10.10;99.90;;;;;;4988820;28;20046;-58
2023/10/31 01:36:26;;;;;;;3.53;0.00;;;10.00;99.90;;;;;;4990139;28;20043;-59
2023/10/31 01:38:53;;;;;;;0.20;0.00;;;10.00;99.90;;;;;;4971731;28;20101;-58
2023/10/31 01:41:20;;;;;;;0.00;0.00;;;10.00;99.90;;;;;;4956701;28;20054;-59
2023/10/31 01:43:47;;;;;;;0.00;0.00;;;10.00;99.90;;;;;;4990886;28;20053;-59
2023/10/31 01:46:13;;;;;;;1.38;0.03;;;10.10;99.90;;;;;;4962284;28;20047;-58
2023/10/31 01:48:41;;;;;;;0.00;0.00;;;10.10;99.90;;;;;;4972402;28;20046;-58
2023/10/31 01:51:09;;;;;;;;;;;10.10;99.90;;;;;;4978589;28;20404;-59
2023/10/31 01:53:37;;;;;;;0.00;0.00;;;10.00;99.90;;;;;;4991474;28;20283;-59
2023/10/31 01:56:04;;;;;;;1.35;0.00;;;10.00;99.90;;;;;;4975112;28;20050;-58
2023/10/31 01:58:37;;;;;;;1.27;0.10;;;10.00;99.90;;;;;;4973720;28;20523;-59
2023/10/31 02:01:05;;;;;;;0.38;0.00;;;10.00;99.90;;;;;;4968540;28;20057;-59
2023/10/31 02:03:33;;;;;;;1.30;0.00;;;10.00;99.90;;;;;;4980201;28;20421;-58
2023/10/31 02:06:00;;;;;;;1.38;0.10;;;10.00;99.90;;;;;;4992773;28;20471;-59
2023/10/31 02:08:27;;;;;;;0.68;0.03;;;10.00;99.90;;;;;;4973849;28;20412;-59
2023/10/31 02:10:54;;;;;;;0.50;0.30;;;10.00;99.90;;;;;;4962208;28;20066;-59
2023/10/31 02:13:21;;;;;;;;;;;10.00;99.90;;;;;;4986899;28;20042;-59
2023/10/31 02:15:48;;;;;;;0.13;0.10;;;10.00;99.90;;;;;;4987937;28;19922;-59
2023/10/31 02:18:15;;;;;;;0.00;0.00;;;9.90;99.90;;;;;;4955791;28;20565;-59
2023/10/31 02:20:42;;;;;;;0.63;0.10;;;10.00;99.90;;;;;;4956931;28;20062;-58
2023/10/31 02:23:09;;;;;;;0.10;0.10;;;9.90;99.90;;;;;;4983928;28;20403;-59
2023/10/31 02:25:36;;;;;;;0.65;0.00;;;9.80;99.90;;;;;;4975294;28;20054;-58
2023/10/31 02:28:03;;;;;;;0.32;0.10;;;9.70;99.90;;;;;;4992093;28;20057;-59
2023/10/31 02:30:30;;;;;;;1.02;0.10;;;9.70;99.90;;;;;;4973925;28;20042;-59
2023/10/31 02:32:57;;;;;;;;;;;9.60;99.90;;;;;;4975767;28;20057;-59
2023/10/31 02:35:23;;;;;;;0.32;0.00;;;9.60;99.90;;;;;;4966226;28;19922;-59
2023/10/31 02:37:51;;;;;;;0.40;0.05;;;9.70;99.90;;;;;;4970480;28;20046;-58
2023/10/31 02:40:18;;;;;;;1.05;0.05;;;9.70;99.90;;;;;;4992374;28;20039;-58
2023/10/31 02:42:45;;;;;;;0.10;0.05;;;9.70;99.90;;;;;;4974297;28;20133;-58
2023/10/31 02:45:12;;;;;;;0.00;0.00;;;9.70;99.90;;;;;;4974893;28;20055;-58
2023/10/31 02:47:39;;;;;;;0.00;0.00;;;9.70;99.90;;;;;;4964096;28;20451;-57
2023/10/31 02:50:07;;;;;;;5.53;0.10;;;9.70;99.90;;;;;;4977705;28;20128;-58
2023/10/31 02:52:33;;;;;;;1.27;0.22;;;9.70;99.90;;;;;;4985789;28;20034;-58
2023/10/31 02:55:00;;;;;;;0.60;0.20;;;9.70;99.90;;;;;;4986235;28;20043;-59
2023/10/31 02:57:27;;;;;;;2.83;0.15;;;9.70;99.90;;;;;;4955267;28;20057;-58
2023/10/31 02:59:54;;;;;;;0.13;0.10;;;9.80;99.90;;;;;;4973089;28;20074;-58
2023/10/31 03:02:22;;;;;;;0.25;0.10;;;9.80;99.90;;;;;;4973900;28;20053;-59
2023/10/31 03:04:49;;;;;;;1.42;0.00;;;9.80;99.90;;;;;;4967551;28;20053;-59
2023/10/31 03:07:15;;;;;;;0.43;0.10;;;9.80;99.90;;;;;;4988756;28;20042;-59
2023/10/31 03:09:42;;;;;;;1.02;0.00;;;9.70;99.90;;;;;;4968799;28;20046;-58
2023/10/31 03:12:09;;;;;;;0.90;0.00;;;9.70;99.90;;;;;;4980301;28;20041;-59
2023/10/31 03:14:36;;;;;;;0.10;0.00;;;9.70;99.90;;;;;;4979957;28;20051;-59
2023/10/31 03:17:03;;;;;;;1.45;0.20;;;9.70;99.90;;;;;;4973908;28;20050;-57
2023/10/31 03:19:29;;;;;;;0.30;0.10;;;9.70;99.90;;;;;;4961976;28;20094;-59
2023/10/31 03:21:56;;;;;;;0.10;0.10;;;9.80;99.90;;;;;;4968621;28;20061;-59
2023/10/31 03:24:23;;;;;;;3.25;0.10;;;9.80;99.90;;;;;;4966521;28;20043;-58
2023/10/31 03:26:50;;;;;;;0.60;0.10;;;9.80;99.90;;;;;;4973399;28;20053;-59
2023/10/31 03:29:16;;;;;;;0.00;0.00;;;9.80;99.90;;;;;;4997880;28;20038;-60
2023/10/31 03:31:43;;;;;;;0.10;0.00;;;9.80;99.90;;;;;;4983358;28;20391;-59
2023/10/31 03:34:10;;;;;;;0.47;0.10;;;9.80;99.90;;;;;;4992164;28;20045;-59
2023/10/31 03:36:37;;;;;;;0.98;0.10;;;9.80;99.90;;;;;;4973375;28;20042;-58
2023/10/31 03:39:03;;;;;;;0.82;0.20;;;9.80;99.90;;;;;;4969287;28;20055;-59
2023/10/31 03:41:30;;;;;;;0.57;0.30;;;9.80;99.90;;;;;;4989486;28;20039;-59
2023/10/31 03:43:57;;;;;;;2.58;0.20;;;9.80;99.90;;;;;;4969652;28;20055;-57
2023/10/31 03:46:24;;;;;;;1.48;0.15;;;9.80;99.90;;;;;;4954710;28;20047;-58
2023/10/31 03:48:51;;;;;;;0.30;0.17;;;9.80;99.90;;;;;;4972552;28;20399;-59
2023/10/31 03:51:17;;;;;;;0.28;0.20;;;9.80;99.90;;;;;;4990540;28;20050;-57
2023/10/31 03:53:44;;;;;;;2.67;0.25;;;9.80;99.90;;;;;;4963051;28;20792;-58
2023/10/31 03:56:11;;;;;;;1.13;0.43;;;9.80;99.90;;;;;;4972202;28;20043;-58
2023/10/31 03:58:40;;;;;;;1.23;0.40;;;9.80;99.90;;;;;;4979921;28;20062;-58
2023/10/31 04:01:07;;;;;;;1.15;0.30;;;9.80;99.90;;;;;;4977942;28;20042;-59
2023/10/31 04:03:34;;;;;;;0.47;0.20;;;9.80;99.90;;;;;;4960119;28;20051;-58
2023/10/31 04:06:01;;;;;;;1.25;0.20;;;9.80;99.90;;;;;;4975893;28;20424;-59
2023/10/31 04:08:28;;;;;;;0.20;0.20;;;9.80;99.90;;;;;;4991041;28;20045;-58
2023/10/31 04:10:55;;;;;;;3.28;0.30;;;9.80;99.90;;;;;;4983042;28;20547;-59
2023/10/31 04:13:22;;;;;;;25.33;2.05;;;9.80;99.90;;;;;;4983891;28;20030;-59
2023/10/31 04:15:49;;;;;;;36.58;1.83;;;9.70;99.90;;;;;;4975932;28;20039;-59
2023/10/31 04:18:16;;;;;;;12.18;1.55;;;9.70;99.90;;;;;;4986074;28;20034;-59
2023/10/31 04:20:43;;;;;;;3.20;0.70;;;9.70;99.90;;;;;;4984413;28;20053;-58
2023/10/31 04:23:11;;;;;;;8.07;1.00;;;9.60;99.90;;;;;;4983575;28;20430;-58
2023/10/31 04:25:38;;;;;;;3.65;0.80;;;9.60;99.90;;;;;;4980780;28;20093;-58
2023/10/31 04:28:05;;;;;;;2.13;0.60;;;9.60;99.90;;;;;;4990238;28;20052;-59
2023/10/31 04:30:32;;;;;;;1.27;0.90;;;9.60;99.90;;;;;;4983185;28;20054;-58
2023/10/31 04:32:58;;;;;;;4.35;1.05;;;9.60;99.90;;;;;;4985046;28;20472;-57
2023/10/31 04:35:26;;;;;;;2.47;1.55;;;9.60;99.90;;;;;;4988221;28;20077;-57
2023/10/31 04:37:52;;;;;;;;;;;9.60;99.90;;;;;;4987938;28;20050;-58
2023/10/31 04:40:19;;;;;;;1.40;1.30;;;9.60;99.90;;;;;;4988413;28;20363;-59
2023/10/31 04:42:47;;;;;;;1.38;1.25;;;9.60;99.90;;;;;;4986465;28;20046;-58
2023/10/31 04:45:14;;;;;;;2.80;1.80;;;9.60;99.90;;;;;;4988772;28;20384;-59
2023/10/31 04:47:42;;;;;;;3.03;1.33;;;9.60;99.90;;;;;;4988195;28;20484;-59
2023/10/31 04:50:09;;;;;;;1.52;1.42;;;9.60;99.90;;;;;;4987910;28;20048;-59
2023/10/31 04:52:36;;;;;;;;;;;9.70;99.90;;;;;;4995222;28;20054;-59
2023/10/31 04:55:03;;;;;;;4.40;2.17;;;9.80;99.90;;;;;;4993992;28;19921;-59
2023/10/31 04:57:30;;;;;;;2.78;2.38;;;9.80;99.90;;;;;;4987220;28;20047;-58
2023/10/31 04:59:58;;;;;;;3.05;2.40;;;9.80;99.90;;;;;;4986584;28;20483;-59
2023/10/31 05:02:25;;;;;;;3.90;2.60;;;9.80;99.90;;;;;;4987784;28;20043;-59
2023/10/31 05:04:51;;;;;;;2.58;2.25;;;9.70;99.90;;;;;;4987633;28;20101;-58
2023/10/31 05:07:19;;;;;;;3.50;2.92;;;9.80;99.90;;;;;;4985546;28;20053;-58
2023/10/31 05:09:46;;;;;;;4.50;3.00;;;9.80;99.90;;;;;;4987584;28;20039;-58
2023/10/31 05:12:13;;;;;;;;;;;9.80;99.90;;;;;;4982074;28;20039;-59
2023/10/31 05:14:40;;;;;;;3.80;2.90;;;9.80;99.90;;;;;;4984630;28;20020;-59
2023/10/31 05:17:07;;;;;;;;;;;9.80;99.90;;;;;;4985166;28;20407;-58
2023/10/31 05:19:34;;;;;;;4.55;2.95;;;9.80;99.90;;;;;;4978544;28;19926;-59
2023/10/31 05:22:00;;;;;;;3.45;2.53;;;9.80;99.90;;;;;;4982918;28;20038;-59
2023/10/31 05:24:27;;;;;;;4.50;2.88;;;9.80;99.90;;;;;;4980288;28;20058;-59
2023/10/31 05:26:54;;;;;;;4.20;2.55;;;9.80;99.90;;;;;;4988960;28;20050;-59
2023/10/31 05:29:21;;;;;;;3.47;2.50;;;9.70;99.90;;;;;;4987899;28;20038;-59
2023/10/31 05:31:47;;;;;;;4.63;2.83;;;9.70;99.90;;;;;;4994593;28;20050;-57
2023/10/31 05:34:14;;;;;;;129.23;11.02;;;9.70;99.90;;;;;;4986994;28;20038;-57
2023/10/31 05:36:41;;;;;;;77.25;6.65;;;9.70;99.90;;;;;;4991154;28;20041;-58
2023/10/31 05:39:08;;;;;;;5.88;2.42;;;9.60;99.90;;;;;;4970747;28;20439;-60
2023/10/31 05:41:35;;;;;;;71.95;5.82;;;9.60;99.90;;;;;;4991076;28;20057;-60
2023/10/31 05:44:02;;;;;;;8.02;2.95;;;9.50;99.90;;;;;;4964969;28;20043;-60
2023/10/31 05:46:29;;;;;;;3.28;2.35;;;9.50;99.90;;;;;;4999595;28;20041;-57
2023/10/31 05:48:56;;;;;;;4.97;2.83;;;9.50;99.90;;;;;;4967730;28;20038;-56
2023/10/31 05:51:25;;;;;;;7.50;3.10;;;9.50;99.90;;;;;;4977926;28;20039;-58
2023/10/31 05:53:52;;;;;;;28.98;4.90;;;9.50;99.90;;;;;;4975662;28;20054;-57
2023/10/31 05:56:19;;;;;;;126.93;10.30;;;9.60;99.90;;;;;;5002044;28;20048;-57
2023/10/31 05:58:46;;;;;;;45.28;6.13;;;9.60;99.90;;;;;;4984832;28;20117;-57
2023/10/31 06:01:13;;;;;;;226.43;16.50;;;9.50;99.90;;;;;;4988936;28;20100;-58
2023/10/31 06:03:44;;;;;;;6.10;3.03;;;9.50;99.90;;;;;;4979840;28;20050;-58
2023/10/31 06:06:12;;;;;;;8.02;3.58;;;9.50;99.90;;;;;;4992117;28;20049;-57
2023/10/31 06:08:39;;;;;;;7.40;3.58;;;9.50;99.90;;;;;;4976974;28;20046;-58
2023/10/31 06:11:06;;;;;;;;;;;9.50;99.90;;;;;;4988168;28;20126;-58
2023/10/31 06:13:33;;;;;;;5.13;3.13;;;9.60;99.90;;;;;;4974457;28;19998;-59
2023/10/31 06:16:01;;;;;;;5.32;3.45;;;9.60;99.90;;;;;;4973543;28;20053;-59
2023/10/31 06:18:28;;;;;;;4.40;2.55;;;9.60;99.90;;;;;;4970745;28;20519;-60
2023/10/31 06:20:55;;;;;;;;;;;9.60;99.90;;;;;;4983756;28;20174;-58
2023/10/31 06:23:22;;;;;;;4.65;3.30;;;9.70;99.90;;;;;;4987039;28;19930;-60
2023/10/31 06:25:49;;;;;;;3.58;2.88;;;9.70;99.90;;;;;;4992290;28;20107;-59
2023/10/31 06:28:16;;;;;;;4.20;3.25;;;9.70;99.90;;;;;;4992646;28;20039;-58
2023/10/31 06:30:43;;;;;;;6.65;4.18;;;9.70;99.90;;;;;;4991900;28;20054;-59
2023/10/31 06:33:10;;;;;;;6.28;4.32;;;9.60;99.90;;;;;;4992919;28;20045;-58
2023/10/31 06:35:37;;;;;;;;;;;9.60;99.90;;;;;;4975769;28;20655;-59
2023/10/31 06:38:04;;;;;;;6.40;4.68;;;9.60;99.90;;;;;;4980429;28;19928;-58
2023/10/31 06:40:31;;;;;;;5.38;4.40;;;9.70;99.90;;;;;;4981226;28;20054;-59
2023/10/31 06:42:59;;;;;;;5.85;4.28;;;9.60;99.90;;;;;;4989522;28;20047;-57
2023/10/31 06:45:25;;;;;;;5.68;4.63;;;9.60;99.90;;;;;;4987397;28;20042;-59
2023/10/31 06:47:53;;;;;;;5.63;3.65;;;9.50;99.90;;;;;;4992132;28;20495;-59
2023/10/31 06:50:20;;;;;;;6.97;4.55;;;9.60;99.90;;;;;;4990890;28;20459;-60
2023/10/31 06:52:47;;;;;;;6.90;4.20;;;9.60;99.90;;;;;;4991139;28;20046;-59
2023/10/31 06:55:14;;;;;;;5.70;4.65;;;9.70;99.90;;;;;;4972847;28;20093;-59
2023/10/31 06:57:41;;;;;;;7.28;4.88;;;9.60;99.90;;;;;;4973003;28;20572;-58
2023/10/31 07:00:08;;;;;;;11.68;6.47;;;9.70;99.90;;;;;;4989665;28;20049;-59
2023/10/31 07:02:36;;;;;;;8.40;5.50;;;9.70;99.90;;;;;;4984595;28;20053;-59
2023/10/31 07:05:03;;;;;;;7.82;4.55;;;9.70;99.90;;;;;;4972492;28;20035;-59
2023/10/31 07:07:30;;;;;;;;;;;9.70;99.90;;;;;;4985610;28;20042;-59
2023/10/31 07:09:57;;;;;;;7.65;4.32;;;9.80;99.90;;;;;;4992338;28;19972;-59
2023/10/31 07:12:24;;;;;;;6.82;2.80;;;9.80;99.90;;;;;;4978209;28;20783;-59
2023/10/31 07:14:51;;;;;;;;;;;9.80;99.90;;;;;;4973489;28;20057;-58
2023/10/31 07:17:18;;;;;;;6.05;2.80;;;9.80;99.90;;;;;;4983482;28;19922;-58
2023/10/31 07:19:45;;;;;;;5.70;2.60;;;9.80;99.90;;;;;;4966173;28;20077;-58
2023/10/31 07:22:11;;;;;;;6.90;2.75;;;9.80;99.90;;;;;;4976680;28;20038;-57
2023/10/31 07:24:38;;;;;;;6.22;2.50;;;9.80;99.90;;;;;;4988400;28;20050;-60
2023/10/31 07:27:05;;;;;;;4.18;2.75;;;9.80;99.90;;;;;;4974185;28;20128;-59
2023/10/31 07:29:32;;;;;;;5.85;3.60;;;9.80;99.90;;;;;;4987785;28;20042;-59
2023/10/31 07:31:59;;;;;;;3.55;2.50;;;9.80;99.90;;;;;;4988396;28;20050;-59
2023/10/31 07:34:26;;;;;;;6.43;3.13;;;9.80;99.90;;;;;;4994894;28;20038;-60
2023/10/31 07:36:53;;;;;;;5.30;2.95;;;9.80;99.90;;;;;;4993951;28;20062;-58
2023/10/31 07:39:19;;;;;;;4.45;2.70;;;9.80;99.90;;;;;;4990944;28;20039;-58
2023/10/31 07:41:46;;;;;;;7.68;2.25;;;9.90;99.90;;;;;;4993745;28;20391;-59
2023/10/31 07:44:13;;;;;;;2.45;1.73;;;9.80;99.90;;;;;;4994714;28;20038;-58
2023/10/31 07:46:40;;;;;;;2.92;2.03;;;9.80;99.90;;;;;;4995625;28;20046;-59
2023/10/31 07:49:07;;;;;;;7.72;1.90;;;9.80;99.90;;;;;;4995495;28;20034;-59
2023/10/31 07:51:33;;;;;;;2.65;1.95;;;9.80;99.90;;;;;;4994399;28;20034;-60
2023/10/31 07:54:00;;;;;;;2.53;1.70;;;9.80;99.90;;;;;;4995834;28;20050;-58
2023/10/31 07:56:28;;;;;;;7.85;1.92;;;9.80;99.90;;;;;;4994578;28;20042;-58
2023/10/31 07:58:55;;;;;;;;;;;9.90;99.90;;;;;;4986458;28;20479;-58
2023/10/31 08:01:22;;;;;;;2.83;2.20;;;9.80;99.90;;;;;;4975929;28;19968;-59
2023/10/31 08:03:49;;;;;;;2.65;2.10;;;9.90;99.90;;;;;;4976891;28;20777;-59
2023/10/31 08:06:16;;;;;;;7.15;4.00;;;9.90;99.90;;;;;;4988351;28;20167;-59
2023/10/31 08:08:43;;;;;;;6.75;3.88;;;9.90;99.90;;;;;;4985097;28;20055;-59
2023/10/31 08:11:10;;;;;;;6.35;4.45;;;9.90;99.90;;;;;;4990763;28;20039;-59
2023/10/31 08:13:38;;;;;;;7.30;4.43;;;9.80;99.90;;;;;;4990462;28;20073;-59
2023/10/31 08:16:06;;;;;;;8.23;5.22;;;9.80;99.90;;;;;;4975325;28;20051;-59
2023/10/31 08:18:34;;;;;;;7.88;4.97;;;9.80;99.90;;;;;;4976390;28;20046;-57
2023/10/31 08:21:02;;;;;;;;;;;9.80;99.90;;;;;;4990223;28;20096;-58
2023/10/31 08:23:29;;;;;;;81.07;34.20;;;9.80;99.90;;;;;;4989779;28;19965;-60
2023/10/31 08:25:56;;;;;;;24.98;13.23;;;9.80;99.90;;;;;;4975258;28;20285;-59
2023/10/31 08:28:23;;;;;;;6.20;4.57;;;9.80;99.90;;;;;;4980019;28;20043;-58
2023/10/31 08:30:50;;;;;;;6.05;4.13;;;9.80;99.90;;;;;;4990967;28;20062;-58
2023/10/31 08:33:17;;;;;;;1.70;1.60;;;9.70;99.90;;;;;;4994725;28;20046;-59
2023/10/31 08:35:43;;;;;;;3.58;1.52;;;9.60;99.90;;;;;;4978219;28;20539;-58
2023/10/31 08:38:11;;;;;;;3.55;0.75;;;9.50;99.90;;;;;;4974834;28;20385;-60
2023/10/31 08:40:52;;;;;;;1.85;1.05;;;9.50;99.90;;;;;;4987066;28;20117;-58
2023/10/31 08:43:19;;;;;;;6.18;1.15;;;9.50;99.90;;;;;;4993727;28;20030;-59
2023/10/31 08:45:45;;;;;;;4.53;1.67;;;9.50;99.90;;;;;;4994766;28;20393;-59
2023/10/31 08:48:12;;;;;;;5.05;1.85;;;9.60;99.90;;;;;;4994486;28;20042;-59
2023/10/31 08:50:39;;;;;;;4.93;2.03;;;9.60;99.90;;;;;;4994972;28;20043;-58
2023/10/31 08:53:06;;;;;;;4.43;2.22;;;9.70;99.90;;;;;;4989929;28;20042;-58
2023/10/31 08:55:33;;;;;;;5.97;2.75;;;9.70;99.90;;;;;;4994625;28;20039;-59
2023/10/31 08:57:59;;;;;;;5.43;2.72;;;9.70;99.90;;;;;;4994462;28;20041;-60
2023/10/31 09:00:28;;;;;;;7.25;3.63;;;9.60;99.90;;;;;;4986545;28;20041;-57
2023/10/31 09:02:55;;;;;;;9.40;6.25;;;9.60;99.90;;;;;;4994568;28;20250;-58
2023/10/31 09:05:22;;;;;;;9.88;5.80;;;9.60;99.90;;;;;;4980554;28;20035;-59
2023/10/31 09:07:49;;;;;;;6.40;5.30;;;9.50;99.90;;;;;;4994307;28;20043;-59
2023/10/31 09:10:16;;;;;;;10.82;5.15;;;9.50;99.90;;;;;;4985745;28;20104;-59
2023/10/31 09:12:43;;;;;;;11.43;6.25;;;9.50;99.90;;;;;;4994329;28;20043;-59
2023/10/31 09:15:10;;;;;;;10.85;4.75;;;9.50;99.90;;;;;;4992544;28;20043;-59
2023/10/31 09:17:37;;;;;;;;;;;9.50;99.90;;;;;;4988659;28;20043;-59
2023/10/31 09:20:05;;;;;;;7.65;4.03;;;9.50;99.90;;;;;;4974613;28;20299;-59
2023/10/31 09:22:32;;;;;;;11.80;5.80;;;9.60;99.90;;;;;;4977001;28;20142;-59
2023/10/31 09:24:58;;;;;;;7.05;3.58;;;9.60;99.90;;;;;;4987067;28;20042;-58
2023/10/31 09:27:25;;;;;;;3.08;2.13;;;9.60;99.90;;;;;;4989756;28;20133;-58
2023/10/31 09:29:52;;;;;;;4.32;1.65;;;9.60;99.90;;;;;;4974492;28;20043;-59
2023/10/31 09:32:19;;;;;;;5.95;1.20;;;9.60;99.90;;;;;;4957069;28;20042;-60
2023/10/31 09:34:46;;;;;;;1.63;0.95;;;9.60;99.90;;;;;;4983280;28;20047;-59
2023/10/31 09:37:13;;;;;;;4.03;1.40;;;9.50;99.90;;;;;;4991027;28;20047;-59
2023/10/31 09:39:40;;;;;;;1.63;1.10;;;9.50;99.90;;;;;;4974235;28;20073;-59
2023/10/31 09:42:08;;;;;;;3.33;1.10;;;9.50;99.90;;;;;;4984672;28;20042;-59
2023/10/31 09:44:35;;;;;;;1.85;0.93;;;9.50;99.90;;;;;;4975361;28;20054;-59
2023/10/31 09:47:02;;;;;;;2.33;1.23;;;9.50;99.90;;;;;;4991079;28;20050;-56
2023/10/31 09:49:29;;;;;;;2.03;1.08;;;9.40;99.90;;;;;;4993241;28;20093;-58
2023/10/31 09:51:56;;;;;;;1.23;1.00;;;9.40;99.90;;;;;;4992366;28;20043;-58
2023/10/31 09:54:25;;;;;;;2.83;1.02;;;9.30;99.90;;;;;;4989743;28;20050;-58
2023/10/31 09:56:52;;;;;;;2.13;1.10;;;9.40;99.90;;;;;;4971518;28;20509;-58
2023/10/31 09:59:18;;;;;;;1.80;1.33;;;9.30;99.90;;;;;;4981904;28;20038;-59
2023/10/31 10:01:45;;;;;;;1.63;0.85;;;9.30;99.90;;;;;;4974324;28;20648;-58
2023/10/31 10:04:12;;;;;;;2.42;1.00;;;9.30;99.90;;;;;;4985012;28;20043;-58
2023/10/31 10:07:01;;;;;;;3.30;1.17;;;9.30;99.90;;;;;;4992997;28;20047;-59
2023/10/31 10:09:29;;;;;;;1.15;0.90;;;9.30;99.90;;;;;;4984939;28;20072;-59
2023/10/31 10:11:56;;;;;;;3.70;1.52;;;9.30;99.90;;;;;;4993484;28;20046;-58
2023/10/31 10:14:23;;;;;;;;;;;9.30;99.90;;;;;;4984959;28;20038;-58
2023/10/31 10:16:50;;;;;;;3.80;2.10;;;9.30;99.90;;;;;;4992526;28;19968;-58
2023/10/31 10:19:20;;;;;;;2.38;1.50;;;9.40;99.90;;;;;;4991272;28;20515;-59
2023/10/31 10:21:52;;;;;;;3.28;1.75;;;9.40;99.90;;;;;;4986332;28;20074;-59
2023/10/31 10:24:20;;;;;;;3.70;2.28;;;9.40;99.90;;;;;;4973607;28;20054;-58
2023/10/31 10:26:48;;;;;;;2.70;1.83;;;9.50;99.90;;;;;;4980327;28;20129;-59
2023/10/31 10:29:15;;;;;;;4.20;1.50;;;9.50;99.90;;;;;;4991188;28;20065;-58
2023/10/31 10:31:42;;;;;;;4.75;2.60;;;9.40;99.90;;;;;;4987425;28;20070;-58
2023/10/31 10:34:09;;;;;;;2.95;1.48;;;9.50;99.90;;;;;;4982939;28;20174;-59
2023/10/31 10:36:36;;;;;;;1.20;1.00;;;9.50;99.90;;;;;;4986334;28;20042;-59
2023/10/31 10:39:03;;;;;;;2.35;1.30;;;9.50;99.90;;;;;;4983537;28;20074;-58
2023/10/31 10:41:34;;;;;;;2.22;1.02;;;9.50;99.90;;;;;;4972299;28;20069;-59
2023/10/31 10:44:07;;;;;;;3.65;1.40;;;9.50;99.90;;;;;;4975249;28;20059;-58
2023/10/31 10:46:36;;;;;;;2.25;1.15;;;9.50;99.90;;;;;;4992454;28;20050;-57
2023/10/31 10:49:07;;;;;;;3.92;1.23;;;9.50;99.90;;;;;;4976197;28;20142;-59
2023/10/31 10:51:49;;;;;;;1.52;1.10;;;9.50;99.90;;;;;;4970813;28;20070;-58
2023/10/31 10:54:27;;;;;;;1.75;1.52;;;9.50;99.90;;;;;;4984458;28;20034;-57
2023/10/31 10:56:58;;;;;;;1.33;0.80;;;9.40;99.90;;;;;;4985142;28;20045;-58
2023/10/31 10:59:50;;;;;;;1.30;0.85;;;9.40;99.90;;;;;;4972916;28;20058;-59
2023/10/31 11:02:18;;;;;;;3.10;0.82;;;9.40;99.90;;;;;;4973615;28;20061;-59
2023/10/31 11:04:45;;;;;;;1.27;0.70;;;9.40;99.90;;;;;;4977621;28;20059;-59
2023/10/31 11:07:12;;;;;;;1.77;0.80;;;9.40;99.90;;;;;;4972832;28;20407;-56
2023/10/31 11:09:41;;;;;;;2.28;0.80;;;9.40;99.90;;;;;;4980452;28;20523;-58
2023/10/31 11:12:10;;;;;;;1.33;0.80;;;9.40;99.90;;;;;;4992462;28;20042;-56
2023/10/31 11:14:37;;;;;;;2.05;0.90;;;9.40;99.90;;;;;;4991757;28;20039;-58
2023/10/31 11:17:18;;;;;;;2.55;1.10;;;9.40;99.90;;;;;;4989240;28;20051;-58
2023/10/31 11:19:45;;;;;;;0.75;0.60;;;9.40;99.90;;;;;;4992780;28;20544;-57
2023/10/31 11:22:12;;;;;;;3.65;1.13;;;9.40;99.90;;;;;;4991116;28;20066;-57
2023/10/31 11:24:41;;;;;;;1.60;0.60;;;9.50;99.90;;;;;;4992137;28;20046;-58
2023/10/31 11:27:07;;;;;;;1.27;0.63;;;9.50;99.90;;;;;;4991695;28;20050;-59
2023/10/31 11:29:36;;;;;;;0.63;0.43;;;9.50;99.90;;;;;;4991146;28;20069;-57
2023/10/31 11:32:07;;;;;;;1.00;0.77;;;9.40;99.90;;;;;;4989134;28;20133;-57
2023/10/31 11:34:38;;;;;;;1.88;0.60;;;9.40;99.90;;;;;;4984869;28;20712;-57
2023/10/31 11:37:26;;;;;;;0.82;0.80;;;9.20;99.90;;;;;;4990636;28;20306;-56
2023/10/31 11:40:22;;;;;;;1.50;0.60;;;9.30;99.90;;;;;;4992105;28;20064;-58
2023/10/31 11:42:51;;;;;;;2.08;1.05;;;9.30;99.90;;;;;;4992167;28;20054;-57
2023/10/31 11:45:28;;;;;;;6.80;3.20;;;9.40;99.90;;;;;;4990271;28;20046;-58
2023/10/31 11:47:56;;;;;;;3.70;1.40;;;9.50;99.90;;;;;;4984834;28;20039;-58
2023/10/31 11:50:23;;;;;;;;;;;9.50;99.90;;;;;;4972612;28;20164;-58
2023/10/31 11:53:14;;;;;;;5.20;2.30;;;9.60;99.90;;;;;;4973130;28;20383;-58
2023/10/31 11:55:42;;;;;;;4.78;2.30;;;9.60;99.90;;;;;;4980614;28;20038;-58
2023/10/31 11:58:19;;;;;;;4.88;2.17;;;9.70;99.90;;;;;;4987210;28;20434;-56
2023/10/31 12:00:49;;;;;;;7.85;3.22;;;9.70;99.90;;;;;;4985599;28;20050;-59
2023/10/31 12:03:19;;;;;;;8.35;3.92;;;9.70;99.90;;;;;;4989685;28;20137;-58
2023/10/31 12:05:57;;;;;;;2.17;1.25;;;9.70;99.90;;;;;;4985677;28;20093;-57
2023/10/31 12:08:30;;;;;;;2.33;1.10;;;9.70;99.90;;;;;;4982388;28;20050;-58
2023/10/31 12:11:04;;;;;;;1.20;0.90;;;9.70;99.90;;;;;;4991816;28;20117;-58
2023/10/31 12:13:31;;;;;;;2.58;1.77;;;9.60;99.90;;;;;;4991679;28;20401;-58
2023/10/31 12:16:00;;;;;;;3.28;1.50;;;9.70;99.90;;;;;;4989601;28;20043;-58
2023/10/31 12:18:28;;;;;;;4.45;1.20;;;9.70;99.90;;;;;;4991249;28;20039;-54
2023/10/31 12:20:55;;;;;;;3.72;0.88;;;9.70;99.90;;;;;;4995149;28;20122;-58
2023/10/31 12:23:22;;;;;;;2.13;1.40;;;9.80;99.90;;;;;;4995318;28;20054;-56
2023/10/31 12:25:50;;;;;;;3.13;0.80;;;9.90;99.90;;;;;;4990526;28;20105;-57
2023/10/31 12:28:24;;;;;;;1.08;0.88;;;9.80;99.90;;;;;;4994705;28;20064;-58
2023/10/31 12:30:55;;;;;;;3.20;0.95;;;9.70;99.90;;;;;;4991460;28;20052;-60
2023/10/31 12:33:25;;;;;;;3.63;1.80;;;9.80;99.90;;;;;;4993412;28;20066;-57
2023/10/31 12:35:59;;;;;;;0.98;0.60;;;9.70;99.90;;;;;;4980051;28;20500;-58
2023/10/31 12:38:27;;;;;;;1.50;0.80;;;9.80;99.90;;;;;;4976039;28;20476;-58
2023/10/31 12:40:54;;;;;;;2.63;1.25;;;9.80;99.90;;;;;;4984465;28;20052;-59
2023/10/31 12:43:21;;;;;;;3.40;1.52;;;9.80;99.90;;;;;;4993610;28;20094;-59
2023/10/31 12:45:48;;;;;;;1.80;1.10;;;9.80;99.90;;;;;;4974986;28;20045;-59
2023/10/31 12:48:15;;;;;;;3.38;1.25;;;9.80;99.90;;;;;;4975361;28;20051;-58
2023/10/31 12:50:42;;;;;;;1.25;0.88;;;9.80;99.90;;;;;;4987573;28;20404;-59
2023/10/31 12:53:09;;;;;;;1.15;0.70;;;9.90;99.90;;;;;;4987190;28;20051;-58
2023/10/31 12:55:41;;;;;;;1.50;0.55;;;9.90;99.90;;;;;;4994281;28;20053;-58
2023/10/31 12:58:10;;;;;;;2.50;1.40;;;9.80;99.90;;;;;;4989585;28;20042;-59
2023/10/31 13:00:38;;;;;;;3.72;1.80;;;9.80;99.90;;;;;;4994517;28;20042;-58
2023/10/31 13:03:07;;;;;;;3.60;1.65;;;9.90;99.90;;;;;;4979457;28;20130;-58